Time;durP1;ratioP1;P1;durP2;ratioP2;P2;SDS_P1;SDS_P2;PMS_P1;PMS_P2;Temp;Humidity;BMP_temperature;BMP_pressure;BME280_temperature;BME280_humidity;BME280_pressure;Samples;Min_cycle;Max_cycle;Signal;HPM_P1;HPM_P2
2022/03/10 00:02:26;;;;;;;26.67;15.48;;;;;;;3.17;53.82;101250.66;5963193;24;20357;-93
2022/03/10 00:06:14;;;;;;;;;;;;;;;;;;;;;
2022/03/10 00:09:32;;;;;;;;;;;;;;;;;;;;;
2022/03/10 00:12:49;;;;;;;;;;;;;;;;;;;;;
2022/03/10 00:16:03;;;;;;;24.65;15.13;;;;;;;3.16;53.00;101256.78;6015198;23;20048;-92
2022/03/10 00:19:44;;;;;;;30.40;16.70;;;;;;;3.01;53.80;101241.13;6014643;23;20328;-93
2022/03/10 00:30:10;;;;;;;28.40;16.38;;;;;;;2.53;55.64;101251.66;6253064;23;20043;-92
2022/03/10 00:33:20;;;;;;;;;;;;;;;;;;;;;
2022/03/10 00:36:46;;;;;;;28.70;16.85;;;;;;;2.21;57.18;101235.97;6105391;23;20093;-93
2022/03/10 00:43:56;;;;;;;26.02;16.35;;;;;;;2.06;59.25;101256.00;5986570;24;20024;-93
2022/03/10 00:50:09;;;;;;;;;;;;;;;;;;;;;
2022/03/10 00:53:30;;;;;;;;;;;;;;;;;;;;;
2022/03/10 00:56:22;;;;;;;27.60;16.65;;;;;;;1.67;60.28;101219.38;6043436;23;20024;-94
2022/03/10 00:59:31;;;;;;;;;;;;;;;;;;;;;
2022/03/10 01:02:16;;;;;;;30.63;16.13;;;;;;;2.02;59.90;101279.53;6158184;23;20562;-93
2022/03/10 01:06:06;;;;;;;27.55;16.23;;;;;;;1.67;59.50;101219.38;6044114;23;20023;-94
2022/03/10 01:20:04;;;;;;;;;;;;;;;;;;;;;
2022/03/10 01:23:25;;;;;;;28.55;15.00;;;;;;;2.01;58.23;101252.53;6099579;23;20025;-94
2022/03/10 01:26:22;;;;;;;27.88;15.63;;;;;;;2.23;57.95;101279.53;6225015;23;20013;-93
2022/03/10 01:29:20;;;;;;;;;;;;;;;;;;;;;
2022/03/10 01:39:25;;;;;;;27.33;15.95;;;;;;;2.02;57.79;101266.47;6041659;23;20339;-93
2022/03/10 01:42:29;;;;;;;;;;;;;;;;;;;;;
2022/03/10 01:46:02;;;;;;;27.77;16.13;;;;;;;1.61;58.18;101209.78;6039708;23;20055;-93
2022/03/10 02:00:02;;;;;;;;;;;;;;;;;;;;;
2022/03/10 02:03:10;;;;;;;;;;;;;;;;;;;;;
2022/03/10 02:07:16;;;;;;;;;;;;;;;;;;;;;
2022/03/10 02:10:40;;;;;;;24.92;15.65;;;;;;;1.45;60.49;101267.13;6157105;23;20051;-93
2022/03/10 02:21:57;;;;;;;;;;;;;;;;;;;;;
2022/03/10 02:35:54;;;;;;;;;;;;;;;;;;;;;
2022/03/10 02:39:32;;;;;;;;;;;;;;;;;;;;;
2022/03/10 02:43:10;;;;;;;30.58;17.25;;;;;;;1.64;59.67;101309.00;6071926;23;20590;-93
2022/03/10 02:46:42;;;;;;;34.95;17.23;;;;;;;1.70;59.01;101314.25;6094878;23;20022;-93
2022/03/10 02:50:28;;;;;;;;;;;;;;;;;;;;;
2022/03/10 02:56:48;;;;;;;28.52;16.83;;;;;;;1.28;59.11;101261.84;6036348;23;20024;-93
2022/03/10 03:00:05;;;;;;;;;;;;;;;;;;;;;
2022/03/10 03:03:54;;;;;;;;;;;;;;;;;;;;;
2022/03/10 03:07:16;;;;;;;28.27;16.73;;;;;;;1.03;60.25;101260.88;5872678;24;20018;-94
2022/03/10 03:13:56;;;;;;;;;;;;;;;;;;;;;
2022/03/10 03:17:10;;;;;;;29.42;17.00;;;;;;;1.34;60.74;101306.25;5980210;24;20155;-92
2022/03/10 03:20:14;;;;;;;28.90;17.00;;;;;;;1.21;60.42;101300.09;5982168;23;20051;-93
2022/03/10 03:23:17;;;;;;;32.22;16.70;;;;;;;1.06;60.84;101289.56;6014442;23;20111;-93
2022/03/10 03:27:05;;;;;;;28.67;16.63;;;;;;;1.18;61.40;101322.69;6059319;23;20030;-95
2022/03/10 03:33:44;;;;;;;32.65;17.55;;;;;;;0.91;61.68;101303.41;6052218;23;20019;-94
2022/03/10 03:36:25;;;;;;;30.92;16.83;;;;;;;1.04;62.00;101335.63;6071965;23;20514;-94
2022/03/10 03:38:57;;;;;;;26.48;16.15;;;;;;;1.03;62.40;101332.16;6071432;23;20054;-93
2022/03/10 03:42:18;;;;;;;34.20;17.63;;;;;;;1.05;62.22;101325.22;6043257;23;20049;-93
2022/03/10 03:45:16;;;;;;;;;;;;;;;;;;;;;
2022/03/10 03:55:20;;;;;;;;;;;;;;;;;;;;;
2022/03/10 04:01:22;;;;;;;;;;;;;;;1.05;61.77;101335.66;6069925;23;20023;-94
2022/03/10 04:22:58;;;;;;;;;;;;;;;0.88;62.55;101339.88;5875462;24;20083;-93
2022/03/10 04:26:43;;;;;;;;;;;;;;;;;;;;;
2022/03/10 06:22:07;;;;;;;26.42;15.02;;;;;;;0.55;64.83;101370.88;6283536;22;20166;-93
2022/03/10 06:35:25;;;;;;;27.08;14.75;;;;;;;1.02;63.36;101389.53;4964464;27;1423501;-93
2022/03/10 06:37:57;;;;;;;28.95;15.10;;;;;;;0.98;62.80;101361.66;5060978;28;20064;-94
2022/03/10 06:40:57;;;;;;;25.88;14.57;;;;;;;1.18;62.15;101387.91;5004848;28;20053;-95
2022/03/10 06:43:40;;;;;;;22.63;14.30;;;;;;;1.02;62.07;101356.50;5064728;28;20054;-95
2022/03/10 06:47:20;;;;;;;29.48;14.20;;;;;;;1.21;61.53;101362.72;5009269;28;20048;-94
2022/03/10 06:50:29;;;;;;;24.75;13.68;;;;;;;1.32;61.13;101352.34;5065987;28;20040;-95
2022/03/10 06:53:23;;;;;;;24.75;14.90;;;;;;;1.42;60.46;101353.28;5060386;28;20045;-91
2022/03/10 06:55:57;;;;;;;23.33;14.40;;;;;;;1.82;60.94;101417.88;5056093;28;20048;-92
2022/03/10 06:58:40;;;;;;;26.88;14.55;;;;;;;1.79;60.20;101393.47;5052452;28;20060;-93
2022/03/10 07:01:09;;;;;;;25.52;14.50;;;;;;;1.59;59.89;101342.03;5062338;28;20045;-92
2022/03/10 07:03:39;;;;;;;26.27;14.82;;;;;;;1.97;59.68;101397.06;5059650;28;20107;-94
2022/03/10 07:06:21;;;;;;;24.38;14.50;;;;;;;1.92;59.31;101367.41;5053952;28;20142;-93
2022/03/10 07:09:14;;;;;;;22.40;13.88;;;;;;;2.33;58.94;101414.59;5054131;28;20515;-93
2022/03/10 07:12:43;;;;;;;25.48;13.82;;;;;;;2.36;57.85;101383.22;5053659;28;20049;-93
2022/03/10 07:15:27;;;;;;;24.90;14.70;;;;;;;2.43;57.40;101379.75;5061234;28;20542;-93
2022/03/10 07:18:01;;;;;;;25.83;13.88;;;;;;;2.81;56.77;101424.28;5045196;28;20057;-92
2022/03/10 07:20:28;;;;;;;23.70;14.25;;;;;;;2.83;55.95;101408.59;5063426;28;20079;-92
2022/03/10 07:23:11;;;;;;;25.20;15.40;;;;;;;2.80;55.82;101385.03;5067165;28;20110;-91
2022/03/10 07:26:07;;;;;;;26.63;14.48;;;;;;;3.24;55.34;101426.91;5007080;28;20250;-93
2022/03/10 07:28:39;;;;;;;28.30;14.93;;;;;;;3.35;54.59;101425.13;5069708;28;20129;-92
2022/03/10 07:31:20;;;;;;;23.27;14.95;;;;;;;3.40;54.37;101415.53;5008627;28;20042;-94
2022/03/10 07:34:04;;;;;;;22.73;14.52;;;;;;;3.66;54.38;101422.47;5058109;28;20064;-92
2022/03/10 07:36:34;;;;;;;22.92;13.75;;;;;;;3.72;53.35;101405.00;4994914;28;20109;-93
2022/03/10 07:39:15;;;;;;;26.38;14.93;;;;;;;3.80;53.28;101378.75;4993001;28;20051;-93
2022/03/10 07:41:58;;;;;;;24.10;14.20;;;;;;;4.11;53.20;101395.22;5002732;28;20141;-93
2022/03/10 07:44:39;;;;;;;22.02;13.55;;;;;;;4.22;52.02;101386.44;5046124;28;20053;-92
2022/03/10 07:47:14;;;;;;;25.90;13.85;;;;;;;4.47;50.21;101397.66;4988985;28;20092;-93
2022/03/10 07:49:57;;;;;;;21.88;13.55;;;;;;;4.87;49.93;101431.53;4992118;28;20046;-93
2022/03/10 07:55:41;;;;;;;23.58;13.98;;;;;;;5.08;48.54;101405.09;4987427;28;20043;-92
2022/03/10 07:58:14;;;;;;;24.00;13.85;;;;;;;5.32;47.81;101416.28;4990730;28;20397;-92
2022/03/10 08:00:55;;;;;;;;;;;;;;;5.54;47.36;101434.44;5039210;28;20512;-92
2022/03/10 08:03:38;;;;;;;25.95;14.57;;;;;;;5.48;47.00;101418.75;4983164;28;19922;-92
2022/03/10 08:06:08;;;;;;;21.27;13.50;;;;;;;5.47;46.72;101384.59;4985077;28;20069;-93
2022/03/10 08:08:45;;;;;;;26.33;14.07;;;;;;;5.83;46.51;101425.34;4984653;28;20095;-92
2022/03/10 08:11:25;;;;;;;27.58;14.23;;;;;;;5.64;46.58;101387.94;4998558;28;20250;-93
2022/03/10 08:14:06;;;;;;;;;;;;;;;6.02;46.07;101426.94;5004946;28;20043;-93
2022/03/10 08:16:41;;;;;;;22.00;13.52;;;;;;;6.04;45.73;101408.50;4983754;28;19965;-93
2022/03/10 08:19:24;;;;;;;23.08;13.38;;;;;;;6.07;45.70;101395.34;4994400;28;20484;-92
2022/03/10 08:25:12;;;;;;;23.67;13.52;;;;;;;6.25;44.52;101388.06;4982929;28;20067;-93
2022/03/10 08:28:26;;;;;;;;;;;;;;;6.57;45.49;101416.56;4985417;28;20057;-94
2022/03/10 08:31:35;;;;;;;25.98;13.00;;;;;;;6.42;45.86;101350.16;4989163;28;19936;-93
2022/03/10 08:34:16;;;;;;;26.48;14.50;;;;;;;6.95;44.21;101410.72;4990966;28;20066;-93
2022/03/10 08:37:26;;;;;;;;;;;;;;;7.09;44.33;101402.59;4980808;28;20304;-94
2022/03/10 08:40:08;;;;;;;24.05;13.20;;;;;;;7.01;44.44;101372.88;5005423;28;19946;-92
2022/03/10 08:42:54;;;;;;;20.98;13.65;;;;;;;6.96;44.45;101345.75;4989148;28;20129;-93
2022/03/10 08:45:39;;;;;;;24.63;13.95;;;;;;;7.40;43.80;101389.75;4982070;28;20042;-92
2022/03/10 08:48:22;;;;;;;22.60;13.70;;;;;;;7.38;42.18;101350.28;4988664;28;20046;-91
2022/03/10 08:51:18;;;;;;;20.10;12.88;;;;;;;7.64;41.30;101372.63;4978751;28;20058;-92
2022/03/10 08:53:50;;;;;;;19.77;12.65;;;;;;;7.85;42.18;101382.75;4986526;28;20054;-93
2022/03/10 08:56:34;;;;;;;24.80;12.98;;;;;;;8.27;40.92;101361.63;4980286;28;20072;-94
2022/03/10 09:10:53;;;;;;;24.02;14.35;;;;;;;11.14;36.39;101332.38;4983073;28;20053;-93
2022/03/10 09:13:52;;;;;;;22.10;14.75;;;;;;;11.49;35.50;101322.31;4941021;28;20123;-94
2022/03/10 09:16:33;;;;;;;20.25;13.27;;;;;;;11.99;34.74;101376.22;5027739;28;20052;-94
2022/03/10 09:19:44;;;;;;;22.55;14.10;;;;;;;12.56;34.19;101382.88;5028010;28;20088;-92
2022/03/10 09:26:05;;;;;;;19.38;13.18;;;;;;;12.96;31.64;101343.13;5023637;28;20071;-92
2022/03/10 09:30:19;;;;;;;18.40;12.75;;;;;;;13.14;31.33;101351.25;5016432;28;20128;-94
2022/03/10 09:33:23;;;;;;;21.52;13.88;;;;;;;12.99;31.29;101355.44;4864748;29;20056;-93
2022/03/10 09:36:07;;;;;;;19.90;14.05;;;;;;;12.82;32.15;101320.69;4874712;29;20059;-92
2022/03/10 09:38:50;;;;;;;16.65;12.73;;;;;;;13.34;30.86;101361.94;4878270;29;20468;-93
2022/03/10 09:46:08;;;;;;;16.77;12.77;;;;;;;14.26;28.86;101343.56;4951221;29;20106;-93
2022/03/10 10:00:23;;;;;;;18.50;12.75;;;;;;;16.04;26.19;101326.47;4911267;29;20044;-93
2022/03/10 10:14:00;;;;;;;16.83;13.00;;;;;;;17.42;24.31;101320.25;4987675;28;20033;-93
2022/03/10 10:17:38;;;;;;;19.73;13.80;;;;;;;17.45;24.60;101329.91;4996304;28;20061;-93
2022/03/10 10:20:19;;;;;;;19.10;14.30;;;;;;;17.28;23.80;101282.75;4941097;29;20067;-93
2022/03/10 10:23:41;;;;;;;16.80;12.68;;;;;;;17.19;23.78;101281.47;4883399;28;20049;-93
2022/03/10 10:27:08;;;;;;;22.08;13.32;;;;;;;17.56;23.69;101300.66;4876438;28;20148;-93
2022/03/10 10:30:06;;;;;;;17.00;12.73;;;;;;;17.91;23.07;101290.47;4846952;28;20053;-93
2022/03/10 10:32:57;;;;;;;17.05;12.68;;;;;;;18.58;22.91;101302.16;4912118;28;20080;-92
2022/03/10 10:35:45;;;;;;;19.85;13.57;;;;;;;19.19;22.09;101298.97;4907773;29;20081;-91
2022/03/10 10:38:31;;;;;;;18.63;13.35;;;;;;;19.60;22.03;101331.03;4905196;29;20075;-91
2022/03/10 10:46:17;;;;;;;16.20;12.80;;;;;;;20.47;20.51;101265.59;5050983;28;20048;-94
2022/03/10 10:49:33;;;;;;;;;;;;;;;;;;;;;
2022/03/10 10:52:35;;;;;;;17.02;14.48;;;;;;;20.81;19.98;101269.31;5039866;28;20049;-94
2022/03/10 10:55:45;;;;;;;17.77;13.55;;;;;;;20.97;20.17;101277.06;5017247;28;20061;-93
2022/03/10 10:58:54;;;;;;;15.25;12.27;;;;;;;21.61;19.53;101285.56;5010292;28;20137;-93
2022/03/10 11:01:36;;;;;;;14.82;12.27;;;;;;;21.60;18.77;101227.25;5011963;28;20052;-92
2022/03/10 11:04:34;;;;;;;;;;;;;;;;;;;;;
2022/03/10 11:07:18;;;;;;;12.82;10.73;;;;;;;22.02;18.48;101256.19;4985847;28;20132;-93
2022/03/10 11:10:26;;;;;;;;;;;;;;;;;;;;;
2022/03/10 11:17:13;;;;;;;12.07;10.15;;;;;;;23.45;16.52;101251.31;5000303;28;20114;-93
2022/03/10 11:25:00;;;;;;;12.75;10.02;;;;;;;23.53;16.19;101272.28;4999114;28;20049;-95
2022/03/10 11:28:40;;;;;;;10.50;8.63;;;;;;;23.29;16.02;101268.00;5048949;28;20057;-94
2022/03/10 11:32:15;;;;;;;13.38;9.50;;;;;;;22.58;16.73;101204.75;5031677;28;20071;-95
2022/03/10 11:35:46;;;;;;;;;;;;;;;;;;;;;
2022/03/10 11:39:17;;;;;;;;;;;;;;;;;;;;;
2022/03/10 11:42:29;;;;;;;9.70;8.15;;;;;;;23.63;15.51;101213.69;5047600;28;20127;-95
2022/03/10 11:49:15;;;;;;;10.40;7.45;;;;;;;23.76;15.49;101257.63;5053239;28;20446;-93
2022/03/10 11:52:42;;;;;;;10.90;9.02;;;;;;;22.36;16.54;101188.63;5028255;28;21076;-95
2022/03/10 11:55:57;;;;;;;10.07;8.52;;;;;;;21.61;17.37;101180.44;5037447;28;20156;-94
2022/03/10 11:59:23;;;;;;;12.75;8.55;;;;;;;21.26;17.75;101220.97;5034566;28;20048;-93
2022/03/10 12:02:08;;;;;;;8.80;7.15;;;;;;;20.66;18.31;101217.50;5027139;28;20107;-93
2022/03/10 12:05:30;;;;;;;10.30;8.15;;;;;;;20.58;18.68;101206.47;5011687;28;20049;-93
2022/03/10 12:19:49;;;;;;;10.40;7.80;;;;;;;19.89;19.09;101183.81;5019852;28;20060;-93
2022/03/10 12:27:01;;;;;;;8.02;5.82;;;;;;;21.34;17.55;101167.38;4974568;28;20065;-93
2022/03/10 12:29:55;;;;;;;7.75;6.25;;;;;;;22.52;16.40;101180.97;4950614;28;20054;-95
2022/03/10 12:33:19;;;;;;;6.55;5.65;;;;;;;23.14;15.48;101161.22;4956030;28;20490;-94
2022/03/10 12:36:51;;;;;;;6.63;5.70;;;;;;;23.97;14.34;101169.13;4952256;28;20043;-95
2022/03/10 12:44:05;;;;;;;;;;;;;;;;;;;;;
2022/03/10 12:47:11;;;;;;;7.22;5.78;;;;;;;25.47;13.56;101143.16;4931083;29;20074;-93
2022/03/10 13:09:50;;;;;;;;;;;;;;;;;;;;;
2022/03/10 13:13:07;;;;;;;6.82;5.00;;;;;;;26.94;12.72;101095.75;4993696;28;20073;-92
2022/03/10 13:16:06;;;;;;;5.22;4.55;;;;;;;26.69;12.37;101067.56;5004093;28;20050;-94
2022/03/10 13:19:29;;;;;;;;;;;;;;;;;;;;;
2022/03/10 13:22:33;;;;;;;6.07;4.75;;;;;;;26.54;12.30;101089.88;5066900;28;20082;-93
2022/03/10 13:28:50;;;;;;;8.10;6.22;;;;;;;26.37;12.23;101055.44;5091699;28;20051;-93
2022/03/10 13:39:24;;;;;;;8.85;7.32;;;;;;;27.17;12.79;101067.84;5079866;28;20044;-94
2022/03/10 13:42:12;;;;;;;8.95;7.53;;;;;;;27.20;12.21;101034.06;5082008;28;20089;-94
2022/03/10 13:45:34;;;;;;;7.53;6.80;;;;;;;26.33;13.04;101074.91;5041028;28;20049;-95
2022/03/10 13:48:51;;;;;;;8.20;6.43;;;;;;;24.42;14.00;101022.41;5071440;28;20565;-95
2022/03/10 13:51:51;;;;;;;7.35;6.35;;;;;;;23.89;14.40;101076.13;4993260;28;20123;-96
2022/03/10 13:54:59;;;;;;;8.40;6.78;;;;;;;23.71;14.26;101052.50;4939628;28;20929;-94
2022/03/10 14:01:41;;;;;;;;;;;;;;;25.30;13.58;101069.91;4946641;28;20414;-94
2022/03/10 14:04:27;;;;;;;9.23;7.25;;;;;;;26.31;12.78;101063.34;4896206;29;19926;-95
2022/03/10 14:10:57;;;;;;;7.45;6.65;;;;;;;26.83;11.89;101067.81;4919350;29;20467;-95
2022/03/10 14:13:43;;;;;;;8.68;6.70;;;;;;;27.09;11.99;101064.22;4845056;29;20052;-95
2022/03/10 14:16:52;;;;;;;7.72;6.93;;;;;;;26.84;11.63;101000.72;4906555;29;20107;-95
2022/03/10 14:20:22;;;;;;;8.80;7.05;;;;;;;27.44;11.45;101061.31;4887267;29;20056;-95
2022/03/10 14:23:55;;;;;;;;;;;;;;;;;;;;;
2022/03/10 14:27:02;;;;;;;8.40;6.13;;;;;;;29.22;10.21;101049.56;4952119;28;20069;-92
2022/03/10 14:33:47;;;;;;;8.73;7.28;;;;;;;28.49;10.43;100984.34;4955360;28;20053;-94
2022/03/10 14:37:26;;;;;;;12.07;7.72;;;;;;;28.81;10.37;101012.56;4992727;28;20142;-95
2022/03/10 14:41:19;;;;;;;;;;;;;;;;;;;;;
2022/03/10 14:44:29;;;;;;;7.97;6.70;;;;;;;27.96;11.03;100982.19;5030353;28;20573;-93
2022/03/10 14:52:07;;;;;;;7.87;6.67;;;;;;;28.33;10.69;100964.50;4954179;28;20256;-94
2022/03/10 14:55:45;;;;;;;;;;;;;;;;;;;;;
2022/03/10 14:58:51;;;;;;;7.47;6.63;;;;;;;24.04;12.90;100953.84;5002839;28;20054;-94
2022/03/10 15:01:38;;;;;;;8.15;6.50;;;;;;;22.24;14.70;100971.16;5037998;28;20046;-94
2022/03/10 15:04:47;;;;;;;8.63;7.10;;;;;;;20.53;16.71;100971.88;5023247;28;20080;-93
2022/03/10 15:07:28;;;;;;;9.52;7.18;;;;;;;20.07;17.03;100998.78;5039274;28;20095;-94
2022/03/10 15:10:51;;;;;;;7.75;6.63;;;;;;;19.22;18.20;100943.44;5045077;28;20052;-95
2022/03/10 15:20:36;;;;;;;9.73;7.03;;;;;;;17.71;20.30;100964.06;4940712;29;20141;-94
2022/03/10 15:28:13;;;;;;;;;;;;;;;;;;;;;
2022/03/10 15:35:56;;;;;;;12.32;7.88;;;;;;;16.13;22.75;100985.75;5586481;23;20028;-92
2022/03/10 15:46:29;;;;;;;9.90;7.13;;;;;;;15.53;22.99;100988.41;5043966;23;20053;-90
2022/03/10 16:11:45;;;;;;;10.68;7.03;;;;;;;14.61;24.82;100962.53;4946012;28;20111;-94
2022/03/10 16:24:59;;;;;;;10.73;7.30;;;;;;;13.88;26.42;100919.34;5093316;23;20062;-93
2022/03/10 16:36:38;;;;;;;;;;;;;;;;;;;;;
2022/03/10 16:40:14;;;;;;;15.52;8.45;;;;;;;13.85;27.22;100963.91;4850282;29;20060;-94
2022/03/10 16:44:22;;;;;;;11.80;8.20;;;;;;;13.52;27.35;100935.41;4835832;29;20057;-93
2022/03/10 16:47:48;;;;;;;11.60;8.43;;;;;;;13.29;27.97;100925.06;4838629;29;20053;-91
2022/03/10 16:57:34;;;;;;;;;;;;;;;;;;;;;
2022/03/10 17:01:20;;;;;;;14.00;8.70;;;;;;;13.08;28.98;100969.47;4987540;28;20043;-95
2022/03/10 17:08:56;;;;;;;14.05;9.00;;;;;;;12.63;29.64;100930.84;4977361;28;20053;-93
2022/03/10 17:12:41;;;;;;;12.38;8.68;;;;;;;12.69;29.81;100963.41;4871850;29;20056;-94
2022/03/10 17:15:57;;;;;;;;;;;;;;;;;;;;;
2022/03/10 17:48:40;;;;;;;15.18;9.00;;;;;;;9.60;48.02;100996.97;5668762;23;20070;-92
2022/03/10 18:15:50;;;;;;;15.07;9.00;;;;;;;8.89;46.68;100958.72;4926594;28;20046;-92
2022/03/10 18:19:08;;;;;;;13.48;8.35;;;;;;;8.95;43.26;100953.28;4935346;28;20052;-94
2022/03/10 18:22:07;;;;;;;17.08;9.63;;;;;;;9.13;45.50;100983.50;5412001;23;20301;-94
2022/03/10 18:28:42;;;;;;;13.50;8.40;;;;;;;9.00;42.53;100961.88;4935158;29;20048;-94
2022/03/10 18:31:35;;;;;;;11.40;7.57;;;;;;;9.08;43.21;100985.44;4928107;29;20044;-95
2022/03/10 18:38:27;;;;;;;16.20;9.05;;;;;;;8.81;45.43;100950.19;4943700;29;20574;-94
2022/03/10 18:40:57;;;;;;;12.10;7.70;;;;;;;8.69;43.99;100940.84;4943081;29;20055;-94
2022/03/10 18:44:00;;;;;;;18.65;8.98;;;;;;;8.69;43.35;100946.13;4939606;29;20120;-93
2022/03/10 18:47:09;;;;;;;14.82;8.45;;;;;;;8.70;41.92;100937.31;4892885;29;20049;-95
2022/03/10 18:49:53;;;;;;;14.18;8.45;;;;;;;8.59;42.28;100920.94;4878214;29;20067;-95
2022/03/10 18:52:47;;;;;;;14.45;8.30;;;;;;;8.69;43.19;100947.91;4897234;29;20037;-96
2022/03/10 18:55:17;;;;;;;14.52;8.15;;;;;;;8.65;43.86;100949.78;4901600;29;20611;-95
2022/03/10 18:58:00;;;;;;;12.68;8.60;;;;;;;8.51;44.20;100944.03;4892573;29;20053;-95
2022/03/10 19:00:32;;;;;;;14.10;8.48;;;;;;;8.42;43.26;100933.78;4892139;29;20059;-95
2022/03/10 19:03:15;;;;;;;;;;;;;;;8.54;43.20;100958.94;4899356;29;20053;-95
2022/03/10 19:05:44;;;;;;;15.75;8.02;;;;;;;8.36;45.63;100932.16;4928185;29;19923;-94
2022/03/10 19:08:39;;;;;;;14.45;7.95;;;;;;;8.19;46.55;100923.84;4935698;29;20064;-95
2022/03/10 19:11:11;;;;;;;16.02;9.05;;;;;;;8.04;45.97;100898.75;4929645;29;20053;-96
2022/03/10 19:14:20;;;;;;;13.63;8.20;;;;;;;8.23;43.72;100945.72;4934112;29;20086;-96
2022/03/10 19:17:00;;;;;;;16.05;8.27;;;;;;;8.23;45.43;100953.63;4934483;29;20092;-96
2022/03/10 19:19:59;;;;;;;13.25;7.88;;;;;;;7.91;41.80;100905.28;4935632;29;20040;-96
2022/03/10 19:22:56;;;;;;;19.92;8.98;;;;;;;8.00;38.62;100905.06;4912697;29;20078;-95
2022/03/10 19:25:56;;;;;;;13.65;8.77;;;;;;;8.18;40.08;100930.06;4921166;29;20130;-94
2022/03/10 19:28:40;;;;;;;16.02;8.70;;;;;;;8.20;41.96;100924.69;4917813;29;20056;-96
2022/03/10 19:31:35;;;;;;;15.70;9.48;;;;;;;8.28;38.99;100920.94;4916798;29;20067;-96
2022/03/10 19:34:19;;;;;;;21.58;9.85;;;;;;;8.16;38.26;100892.28;4918127;29;20084;-94
2022/03/10 19:36:56;;;;;;;18.00;10.65;;;;;;;8.42;38.38;100944.31;4913165;29;20099;-95
2022/03/10 19:39:51;;;;;;;;;;;;;;;;;;;;;
2022/03/10 19:46:12;;;;;;;19.58;10.25;;;;;;;8.06;39.09;100918.06;5075636;23;20043;-95
2022/03/10 19:49:15;;;;;;;21.75;10.57;;;;;;;8.02;39.94;100936.66;4947429;28;20074;-96
2022/03/10 19:52:30;;;;;;;;;;;;;;;;;;;;;
2022/03/10 19:55:14;;;;;;;18.45;10.38;;;;;;;7.59;43.43;100921.13;4940342;29;20063;-95
2022/03/10 19:58:30;;;;;;;19.40;11.00;;;;;;;7.45;42.10;100908.31;4942775;29;20055;-95
2022/03/10 20:01:36;;;;;;;;;;;;;;;;;;;;;
2022/03/10 20:05:40;;;;;;;;;;;;;;;;;;;;;
2022/03/10 20:09:21;;;;;;;19.55;11.73;;;;;;;7.15;41.71;100902.06;4795944;29;20055;-96
2022/03/10 20:28:24;;;;;;;26.55;12.70;;;;;;;7.23;42.52;100947.53;4767494;30;20052;-95
2022/03/10 20:31:46;;;;;;;20.92;12.95;;;;;;;6.95;42.24;100913.06;4766263;30;20055;-95
2022/03/10 20:34:40;;;;;;;;;;;;;;;7.14;42.75;100954.75;4835091;29;20065;-95
2022/03/10 20:37:50;;;;;;;;;;;;;;;;;;;;;
2022/03/10 20:40:39;;;;;;;19.73;12.70;;;;;;;6.74;43.33;100913.59;4892928;29;20040;-93
2022/03/10 20:43:45;;;;;;;20.23;12.05;;;;;;;6.79;44.22;100951.16;4895194;29;20077;-92
2022/03/10 20:46:57;;;;;;;20.63;12.02;;;;;;;6.43;45.13;100921.28;4904694;29;20088;-94
2022/03/10 20:50:36;;;;;;;21.85;12.55;;;;;;;6.53;44.01;100935.97;4824548;29;20149;-94
2022/03/10 20:54:08;;;;;;;22.85;13.05;;;;;;;6.38;44.43;100922.28;4822362;29;20064;-94
2022/03/10 20:56:54;;;;;;;20.85;12.38;;;;;;;6.30;46.32;100922.44;4903271;29;20086;-94
2022/03/10 21:02:50;;;;;;;23.25;12.75;;;;;;;6.09;49.03;100909.75;4898932;29;20087;-93
2022/03/10 21:05:33;;;;;;;25.50;12.88;;;;;;;6.31;47.90;100967.13;4852494;29;20442;-94
2022/03/10 21:08:34;;;;;;;20.88;12.65;;;;;;;5.95;49.59;100937.19;4864245;29;20061;-95
2022/03/10 21:11:38;;;;;;;18.83;11.73;;;;;;;5.63;49.20;100923.75;4885048;29;20076;-94
2022/03/10 21:14:34;;;;;;;23.55;12.13;;;;;;;5.66;50.12;100944.72;4922097;29;20061;-93
2022/03/10 21:17:58;;;;;;;22.70;12.40;;;;;;;5.80;49.73;100968.13;4906688;29;20076;-92
2022/03/10 21:21:29;;;;;;;19.05;12.00;;;;;;;5.73;48.21;100940.19;4913169;29;20047;-94
2022/03/10 21:24:40;;;;;;;;;;;;;;;5.89;48.92;100963.56;4916928;29;20132;-93
2022/03/10 21:27:21;;;;;;;20.27;11.70;;;;;;;5.88;48.65;100953.94;4893826;29;19931;-93
2022/03/10 21:30:03;;;;;;;20.30;11.85;;;;;;;5.88;48.73;100955.69;4911491;29;20048;-92
2022/03/10 21:32:36;;;;;;;22.70;12.65;;;;;;;5.70;47.80;100924.47;4899651;29;20416;-96
2022/03/10 21:35:05;;;;;;;19.08;11.38;;;;;;;5.64;47.82;100914.97;4913909;29;20500;-94
2022/03/10 21:37:48;;;;;;;20.05;11.57;;;;;;;5.64;48.34;100918.47;4937877;29;20066;-93
2022/03/10 21:40:37;;;;;;;19.95;12.50;;;;;;;5.67;49.06;100919.31;4935459;29;20060;-92
2022/03/10 21:43:12;;;;;;;22.77;12.20;;;;;;;5.96;50.25;100953.81;4930638;29;20051;-92
2022/03/10 21:45:43;;;;;;;24.08;12.57;;;;;;;5.87;47.89;100927.66;4934420;29;20066;-94
2022/03/10 21:48:33;;;;;;;23.17;12.43;;;;;;;6.09;46.88;100960.56;4935511;29;20492;-93
2022/03/10 21:51:04;;;;;;;20.10;11.70;;;;;;;6.09;48.50;100957.94;4946515;28;20060;-93
2022/03/10 21:53:59;;;;;;;19.45;11.95;;;;;;;5.77;46.28;100905.97;4945889;29;20052;-93
2022/03/10 21:56:48;;;;;;;20.88;12.95;;;;;;;6.04;47.98;100943.13;4939608;29;20157;-94
2022/03/10 21:59:41;;;;;;;21.77;12.77;;;;;;;5.86;48.79;100915.41;4913863;29;20058;-93
2022/03/10 22:02:55;;;;;;;21.25;12.65;;;;;;;5.98;46.79;100952.03;4873082;29;20061;-92
2022/03/10 22:05:38;;;;;;;22.85;12.57;;;;;;;5.78;46.91;100928.72;4861351;29;20046;-93
2022/03/10 22:16:51;;;;;;;18.55;11.45;;;;;;;5.44;49.76;100893.44;5230375;23;20663;-94
2022/03/10 22:19:55;;;;;;;21.38;11.70;;;;;;;5.83;48.71;100953.13;4929747;29;20079;-95
2022/03/10 22:22:58;;;;;;;21.55;11.65;;;;;;;5.69;48.44;100939.38;4937126;29;20060;-93
2022/03/10 22:25:57;;;;;;;22.40;12.00;;;;;;;5.84;48.36;100946.13;4944141;29;20067;-95
2022/03/10 22:29:33;;;;;;;18.20;11.07;;;;;;;5.45;47.95;100892.56;4867867;29;20126;-94
